ADDS METAR Data INFO
IDs: Format: Raw Decoded Include TAF

Data at: 0749 UTC 24 Oct 2017

KCKC 240733Z AUTO 33015G25KT 3SM -DZ BKN010 OVC015 04/02 A2967 RMK AO2 P0001
KCKC 240714Z AUTO 32014G25KT 4SM -DZ OVC012 04/02 A2967 RMK AO2 P0001
KCKC 240654Z AUTO 33020G28KT 4SM -DZ SCT008 OVC015 04/02 A2967 RMK AO2
KCKC 240633Z AUTO 32014G25KT 5SM DZ BKN008 OVC015 04/02 A2967 RMK AO2
KCKC 240614Z AUTO 33015G23KT 3SM -DZ OVC008 04/03 A2968 RMK AO2
KCKC 240553Z AUTO 33016G24KT 4SM -DZ OVC008 05/03 A2967 RMK AO2
KCKC 240533Z AUTO 32013G20KT 3SM BR OVC008 05/03 A2968 RMK AO2
KCKC 240513Z AUTO 32012G21KT 4SM -DZ OVC008 05/03 A2969 RMK AO2
KCKC 240453Z AUTO 32012G20KT 2 1/2SM DZ OVC010 04/02 A2969 RMK AO2
KCKC 240434Z AUTO 32010G18KT 4SM BR OVC010 04/02 A2970 RMK AO2
KCKC 240413Z AUTO 31010G16KT 4SM HZ OVC008 04/02 A2971 RMK AO2
KCKC 240354Z AUTO 31010G18KT 7SM OVC008 04/02 A2971 RMK AO2
KCKC 240334Z AUTO 31006G21KT 7SM OVC008 04/02 A2970 RMK AO2
KCKC 240313Z AUTO 31007G20KT 289V349 10SM OVC008 05/02 A2971 RMK AO2
KCKC 240254Z AUTO 31009G21KT 269V339 7SM OVC010 05/02 A2972 RMK AO2
KCKC 240233Z AUTO 31010G16KT 5SM HZ OVC012 06/02 A2972 RMK AO2
KCKC 240213Z AUTO 30010G19KT 259V319 10SM OVC012 06/03 A2972 RMK AO2
KCKC 240154Z AUTO 31010G17KT 10SM OVC010 06/03 A2972 RMK AO2
KCKC 240133Z AUTO 31009G22KT 269V339 10SM OVC008 06/03 A2971 RMK AO2
KCKC 240114Z AUTO 31012G19KT 10SM OVC010 07/03 A2971 RMK AO2
KCKC 240053Z AUTO 30007KT 269V329 10SM BKN012 BKN027 07/03 A2972 RMK AO2
KCKC 240033Z AUTO 31009G14KT 10SM SCT021 BKN028 07/03 A2972 RMK AO2
KCKC 240014Z AUTO 31008G17KT 279V339 10SM BKN028 08/03 A2972 RMK AO2
KCKC 232353Z AUTO 30009G18KT 10SM BKN024 OVC029 08/03 A2972 RMK AO2
KCKC 232333Z AUTO 29006KT 10SM BKN029 08/03 A2972 RMK AO2
KCKC 232314Z AUTO 30008KT 259V329 10SM SCT029 09/03 A2972 RMK AO2
KCKC 232253Z AUTO 29007KT 249V329 10SM SCT028 SCT065 09/03 A2970 RMK AO2
KCKC 232234Z AUTO 31009KT 10SM SCT030 SCT065 BKN070 11/04 A2969 RMK AO2
KCKC 232213Z AUTO 32006KT 10SM SCT030 BKN065 BKN070 11/04 A2969 RMK AO2
KCKC 232154Z AUTO 29006KT 10SM SCT050 BKN065 BKN080 12/04 A2969 RMK AO2
KCKC 232134Z AUTO 28003KT 10SM SCT050 SCT065 BKN080 12/04 A2968 RMK AO2
KCKC 232113Z AUTO 00000KT 10SM BKN050 12/04 A2968 RMK AO2
KCKC 232054Z AUTO 00000KT 10SM BKN050 12/04 A2968 RMK AO2
KCKC 232033Z AUTO 00000KT 10SM SCT043 SCT050 12/03 A2967 RMK AO2
KCKC 232013Z AUTO 17003KT 10SM BKN043 BKN050 12/03 A2967 RMK AO2
KCKC 231953Z AUTO 19007KT 10SM BKN045 BKN050 14/03 A2968 RMK AO2
KCKC 231933Z AUTO 19006KT 10SM SCT041 13/04 A2967 RMK AO2
KCKC 231914Z AUTO 15004KT 10SM SCT041 14/04 A2966 RMK AO2
KCKC 231853Z AUTO 16004KT 10SM CLR 13/04 A2966 RMK AO2
KCKC 231833Z AUTO 19003KT 10SM CLR 13/03 A2966 RMK AO2
KCKC 231814Z AUTO 00000KT 10SM CLR 13/03 A2966 RMK AO2
KCKC 231753Z AUTO 19004KT 10SM CLR 13/03 A2967 RMK AO2
KCKC 231734Z AUTO 19006KT 10SM CLR 13/03 A2967 RMK AO2
KCKC 231713Z AUTO 20004KT 10SM CLR 12/03 A2967 RMK AO2
KCKC 231653Z AUTO 18006KT 10SM CLR 12/03 A2967 RMK AO2
KCKC 231634Z AUTO 20007KT 10SM CLR 12/03 A2967 RMK AO2
KCKC 231613Z AUTO 19008KT 10SM SCT065 SCT085 11/04 A2968 RMK AO2
KCKC 231553Z AUTO 00000KT 10SM BKN065 OVC075 09/04 A2969 RMK AO2
KCKC 231534Z AUTO 00000KT 10SM SCT060 BKN075 08/04 A2968 RMK AO2
KCKC 231513Z AUTO 00000KT 10SM SCT050 SCT060 BKN085 08/04 A2969 RMK AO2
KCKC 231454Z AUTO 00000KT 10SM -DZ SCT050 BKN085 08/04 A2971 RMK AO2
KCKC 231433Z AUTO 15004KT 10SM BKN085 08/05 A2972 RMK AO2
KCKC 231413Z AUTO 00000KT 10SM SCT070 OVC085 08/05 A2971 RMK AO2
KCKC 231359Z AUTO 16003KT 10SM -RA SCT070 OVC085 08/04 A2972 RMK AO2
KCKC 231333Z AUTO 14003KT 10SM -RA OVC085 08/05 A2972 RMK AO2
KCKC 231314Z AUTO 15004KT 10SM BKN085 08/04 A2972 RMK AO2
KCKC 231253Z AUTO 11004KT 10SM BKN085 07/04 A2971 RMK AO2
KCKC 231233Z AUTO 00000KT 10SM SCT085 SCT100 07/04 A2973 RMK AO2
KCKC 231214Z AUTO 14003KT 10SM BKN095 07/03 A2973 RMK AO2
KCKC 231153Z AUTO 14003KT 10SM BKN095 08/03 A2973 RMK AO2
KCKC 231134Z AUTO 00000KT 10SM OVC095 08/03 A2973 RMK AO2
KCKC 231114Z AUTO 15004KT 10SM SCT075 OVC085 08/03 A2974 RMK AO2
KCKC 231053Z AUTO 16005KT 10SM BKN075 OVC085 08/03 A2975 RMK AO2
KCKC 231034Z AUTO 17007KT 10SM BKN095 08/03 A2975 RMK AO2
KCKC 231013Z AUTO 17007KT 129V189 10SM SCT095 08/03 A2976 RMK AO2
KCKC 230953Z AUTO 17007KT 10SM OVC095 08/03 A2977 RMK AO2
KCKC 230934Z AUTO 16007KT 10SM BKN095 08/02 A2977 RMK AO2
KCKC 230913Z AUTO 16006KT 10SM CLR 08/02 A2977 RMK AO2
KCKC 230854Z AUTO 16005KT 10SM CLR 08/02 A2977 RMK AO2
KCKC 230833Z AUTO 16007KT 10SM CLR 08/02 A2978 RMK AO2
KCKC 230813Z AUTO 15007KT 10SM SCT065 SCT080 08/02 A2978 RMK AO2
KCKC 230754Z AUTO 17006KT 10SM SCT065 SCT080 08/02 A2980 RMK AO2
KCKC 230733Z AUTO 19006KT 10SM SCT065 08/02 A2981 RMK AO2
KCKC 230714Z AUTO 16006KT 10SM SCT065 08/01 A2981 RMK AO2
KCKC 230653Z AUTO 19007KT 10SM CLR 09/01 A2981 RMK AO2
KCKC 230633Z AUTO 16007KT 119V179 10SM SCT075 09/00 A2981 RMK AO2
KCKC 230614Z AUTO 17006KT 10SM SCT075 09/00 A2982 RMK AO2
KCKC 230553Z AUTO 19005KT 10SM SCT075 09/00 A2984 RMK AO2
KCKC 230533Z AUTO 20004KT 10SM SCT060 SCT070 08/01 A2985 RMK AO2
KCKC 230514Z AUTO 20005KT 10SM SCT100 08/01 A2986 RMK AO2
KCKC 230453Z AUTO 19006KT 10SM SCT070 SCT080 SCT110 08/01 A2985 RMK AO2
KCKC 230434Z AUTO 21005KT 10SM SCT070 BKN080 BKN095 08/02 A2986 RMK AO2
KCKC 230413Z AUTO 21004KT 10SM SCT095 08/01 A2986 RMK AO2
KCKC 230353Z AUTO 19006KT 10SM CLR 08/01 A2986 RMK AO2
KCKC 230334Z AUTO 18006KT 10SM CLR 08/00 A2986 RMK AO2
KCKC 230313Z AUTO 19007KT 10SM CLR 08/M02 A2986 RMK AO2
KCKC 230253Z AUTO 19004KT 10SM CLR 07/M03 A2987 RMK AO2
KCKC 230234Z AUTO 19004KT 10SM CLR 06/M03 A2987 RMK AO2
KCKC 230213Z AUTO 20004KT 10SM CLR 06/M03 A2988 RMK AO2
KCKC 230154Z AUTO 21004KT 10SM CLR 06/M03 A2988 RMK AO2
KCKC 230133Z AUTO 20003KT 10SM CLR 06/M02 A2988 RMK AO2
KCKC 230113Z AUTO 21003KT 10SM CLR 06/M02 A2988 RMK AO2
KCKC 230054Z AUTO 21003KT 10SM CLR 06/M02 A2987 RMK AO2
KCKC 230033Z AUTO 21003KT 10SM CLR 06/M01 A2987 RMK AO2
KCKC 230014Z AUTO 21003KT 10SM CLR 06/00 A2987 RMK AO2
KCKC 222353Z AUTO 21003KT 10SM CLR 06/01 A2987 RMK AO2
KCKC 222333Z AUTO 22003KT 10SM CLR 06/01 A2986 RMK AO2
KCKC 222314Z AUTO 00000KT 10SM CLR 07/01 A2986 RMK AO2
KCKC 222253Z AUTO 19003KT 10SM CLR 07/02 A2985 RMK AO2
KCKC 222234Z AUTO 20004KT 10SM CLR 08/02 A2985 RMK AO2
KCKC 222214Z AUTO 19004KT 10SM CLR 09/02 A2984 RMK AO2
KCKC 222153Z AUTO 19006KT 10SM CLR 09/02 A2984 RMK AO2
KCKC 222134Z AUTO 16004KT 10SM CLR 10/03 A2983 RMK AO2
KCKC 222113Z AUTO 20004KT 10SM CLR 12/01 A2983 RMK AO2
KCKC 222054Z AUTO 20007G16KT 10SM CLR 12/01 A2982 RMK AO2
KCKC 222033Z AUTO 22006G15KT 10SM CLR 12/00 A2982 RMK AO2
KCKC 222013Z AUTO 22008G15KT 10SM CLR 12/01 A2981 RMK AO2
KCKC 221953Z AUTO 20006KT 10SM CLR 11/02 A2981 RMK AO2